Weather at Kohler Airstrip [CLOSED]

Public forecast

Using degrees Celsius for public forecast. Weather courtesy of forecast.io.

Closest aviation weather report (METAR) to Kohler Airstrip

Closest report is John C. Munro Hamilton International Airport, 16.6 nm (30.8 km) NNW.

2024/05/26 18:00 (retrieved 14 minutes ago)

CYHM 261800Z 06006KT 3SM BR FEW016 SCT025 BKN230 18/16 A2993 RMK CF1SC2CI3 SLP140 DENSITY ALT 1300FT

Closest aviation forecast (TAF) to Kohler Airstrip

Closest forecast is John C. Munro Hamilton International Airport, 16.6 nm (30.8 km) NNW.

2024/05/26 18:06 Ammendment (retrieved 8 minutes ago)

TAF AMD TAF AMD CYHM 261803Z 2618/2718 06008KT P6SM FEW015 BKN220 TEMPO 2618/2619 3SM BR BECMG 2622/2624 06012G22KT FM270300 22008KT P6SM -SHRA BKN060 OVC120 PROB40 2703/2705 4SM TSRA BR BKN015 OVC060CB FM270500 12008KT 4SM -SHRA BR BKN006 OVC080 PROB30 2705/2714 2SM TSRA BR BKN004 OVC080CB FM271400 20010KT P6SM -SHRA BKN008 OVC015 FM271700 22012G22KT P6SM -SHRA BKN015 OVC060 RMK NXT FCST BY 270000Z